Time;durP1;ratioP1;P1;durP2;ratioP2;P2;SDS_P1;SDS_P2;PMS_P1;PMS_P2;Temp;Humidity;BMP_temperature;BMP_pressure;BME280_temperature;BME280_humidity;BME280_pressure;Samples;Min_cycle;Max_cycle;Signal;HPM_P1;HPM_P2
2022/11/16 00:01:11;;;;;;;;;;;12.80;99.90;;;;;;5073040;28;19931;-22
2022/11/16 00:03:37;;;;;;;;;;;12.80;99.90;;;;;;5072843;28;19909;-26
2022/11/16 00:06:03;;;;;;;;;;;12.80;99.90;;;;;;5073330;28;19953;-26
2022/11/16 00:08:30;;;;;;;;;;;12.80;99.90;;;;;;5072408;28;19917;-26
2022/11/16 00:11:02;;;;;;;;;;;12.80;99.90;;;;;;5054887;28;19915;-23
2022/11/16 00:13:28;;;;;;;;;;;12.80;99.90;;;;;;5072802;28;19917;-23
2022/11/16 00:15:54;;;;;;;;;;;12.80;99.90;;;;;;5073154;28;19913;-21
2022/11/16 00:18:20;;;;;;;;;;;12.80;99.90;;;;;;5072493;28;20289;-29
2022/11/16 00:20:46;;;;;;;;;;;12.80;99.90;;;;;;5072558;28;19916;-23
2022/11/16 00:23:11;;;;;;;;;;;12.80;99.90;;;;;;5072785;28;19908;-21
2022/11/16 00:25:37;;;;;;;;;;;12.80;99.90;;;;;;5072738;28;19913;-23
2022/11/16 00:28:02;;;;;;;;;;;12.80;99.90;;;;;;5072249;28;20310;-23
2022/11/16 00:30:28;;;;;;;;;;;12.70;99.90;;;;;;5072554;28;19923;-23
2022/11/16 00:32:53;;;;;;;;;;;12.80;99.90;;;;;;5071436;28;19920;-24
2022/11/16 00:35:19;;;;;;;;;;;12.70;99.90;;;;;;5072438;28;19908;-21
2022/11/16 00:37:44;;;;;;;;;;;12.80;99.90;;;;;;5072719;28;19920;-23
2022/11/16 00:40:10;;;;;;;;;;;12.70;99.90;;;;;;5072026;28;19919;-24
2022/11/16 00:42:36;;;;;;;;;;;12.80;99.90;;;;;;5072241;28;20003;-25
2022/11/16 00:45:01;;;;;;;;;;;12.80;99.90;;;;;;5072245;28;20404;-22
2022/11/16 00:47:27;;;;;;;;;;;12.80;99.90;;;;;;5072134;28;19924;-24
2022/11/16 00:49:52;;;;;;;;;;;12.70;99.90;;;;;;5071736;28;19916;-23
2022/11/16 00:52:18;;;;;;;;;;;12.70;99.90;;;;;;5071911;28;19925;-23
2022/11/16 00:54:43;;;;;;;;;;;12.70;99.90;;;;;;5072230;28;19908;-23
2022/11/16 00:57:09;;;;;;;;;;;12.80;99.90;;;;;;5072012;28;20003;-24
2022/11/16 00:59:34;;;;;;;;;;;12.70;99.90;;;;;;5071423;28;19978;-23
2022/11/16 01:02:00;;;;;;;;;;;12.70;99.90;;;;;;5071751;28;19912;-22
2022/11/16 01:04:25;;;;;;;;;;;12.70;99.90;;;;;;5072194;28;20282;-27
2022/11/16 01:06:51;;;;;;;;;;;12.70;99.90;;;;;;5071949;28;19996;-23
2022/11/16 01:09:16;;;;;;;;;;;12.70;99.90;;;;;;5071695;28;19916;-25
2022/11/16 01:14:26;;;;;;;;;;;12.70;99.90;;;;;;5071875;28;19920;-23
2022/11/16 01:16:51;;;;;;;;;;;12.70;99.90;;;;;;5053773;28;19912;-23
2022/11/16 01:19:17;;;;;;;;;;;12.70;99.90;;;;;;5071318;28;19959;-25
2022/11/16 01:21:42;;;;;;;;;;;12.70;99.90;;;;;;5071688;28;19909;-23
2022/11/16 01:24:08;;;;;;;;;;;12.70;99.90;;;;;;5071814;28;19935;-23
2022/11/16 01:26:34;;;;;;;;;;;12.70;99.90;;;;;;5071874;28;19912;-22
2022/11/16 01:28:59;;;;;;;;;;;12.70;99.90;;;;;;5053107;28;20369;-23
2022/11/16 01:31:25;;;;;;;;;;;12.70;99.90;;;;;;5071743;28;20413;-29
2022/11/16 01:33:50;;;;;;;;;;;12.70;99.90;;;;;;5071589;28;19916;-25
2022/11/16 01:36:16;;;;;;;;;;;12.70;99.90;;;;;;5071877;28;19908;-22
2022/11/16 01:38:42;;;;;;;;;;;12.70;99.90;;;;;;5071180;28;19908;-23
2022/11/16 01:41:08;;;;;;;;;;;12.70;99.90;;;;;;5071715;28;20358;-28
2022/11/16 01:43:48;;;;;;;;;;;12.70;99.90;;;;;;5071233;28;19917;-23
2022/11/16 01:46:14;;;;;;;;;;;12.70;99.90;;;;;;5071602;28;19984;-23
2022/11/16 01:48:40;;;;;;;;;;;12.70;99.90;;;;;;5071021;28;19963;-22
2022/11/16 01:51:05;;;;;;;;;;;12.70;99.90;;;;;;5071324;28;20390;-31
2022/11/16 01:53:31;;;;;;;;;;;12.70;99.90;;;;;;5071271;28;19971;-25
2022/11/16 01:55:56;;;;;;;;;;;12.70;99.90;;;;;;5071272;28;20286;-24
2022/11/16 01:58:23;;;;;;;;;;;12.70;99.90;;;;;;5070949;28;20368;-24
2022/11/16 02:00:49;;;;;;;;;;;12.70;99.90;;;;;;5071946;28;19985;-23
2022/11/16 02:03:18;;;;;;;;;;;12.70;99.90;;;;;;5071673;28;19984;-22
2022/11/16 02:06:03;;;;;;;;;;;12.70;99.90;;;;;;5053235;28;19930;-22
2022/11/16 02:11:26;;;;;;;;;;;12.70;99.90;;;;;;5071239;28;19920;-26
2022/11/16 02:14:10;;;;;;;;;;;12.70;99.90;;;;;;5071092;28;19912;-26
2022/11/16 02:16:39;;;;;;;;;;;12.70;99.90;;;;;;5071160;28;19935;-28
2022/11/16 02:19:22;;;;;;;;;;;12.70;99.90;;;;;;5070346;28;20379;-22
2022/11/16 02:21:58;;;;;;;;;;;12.70;99.90;;;;;;5070788;28;19939;-23
2022/11/16 02:24:38;;;;;;;;;;;12.70;99.90;;;;;;5071136;28;20267;-28
2022/11/16 02:27:22;;;;;;;;;;;12.70;99.90;;;;;;5071006;28;19912;-29
2022/11/16 02:29:52;;;;;;;;;;;12.70;99.90;;;;;;5070716;28;19915;-22
2022/11/16 02:32:23;;;;;;;;;;;12.70;99.90;;;;;;5071086;28;19916;-23
2022/11/16 02:34:55;;;;;;;;;;;12.70;99.90;;;;;;5071554;28;19913;-21
2022/11/16 02:37:22;;;;;;;;;;;12.70;99.90;;;;;;5070981;28;19915;-23
2022/11/16 02:39:50;;;;;;;;;;;12.70;99.90;;;;;;5070445;28;19909;-23
2022/11/16 02:42:17;;;;;;;;;;;12.70;99.90;;;;;;5070791;28;19995;-23
2022/11/16 02:44:45;;;;;;;;;;;12.70;99.90;;;;;;5071087;28;19956;-28
2022/11/16 02:47:15;;;;;;;;;;;12.70;99.90;;;;;;5053006;28;20355;-21
2022/11/16 02:49:43;;;;;;;;;;;12.70;99.90;;;;;;5070688;28;19908;-21
2022/11/16 02:52:09;;;;;;;;;;;12.70;99.90;;;;;;5070972;28;19919;-23
2022/11/16 02:54:35;;;;;;;;;;;12.70;99.90;;;;;;5071031;28;20412;-23
2022/11/16 02:57:00;;;;;;;;;;;12.70;99.90;;;;;;5072766;28;19951;-22
2022/11/16 02:59:34;;;;;;;;;;;12.70;99.90;;;;;;5073781;28;19999;-22
2022/11/16 03:02:23;;;;;;;;;;;12.70;99.90;;;;;;5074380;28;19908;-29
2022/11/16 03:04:50;;;;;;;;;;;12.70;99.90;;;;;;5074136;28;19938;-21
2022/11/16 03:07:19;;;;;;;;;;;12.70;99.90;;;;;;5074199;28;19909;-23
2022/11/16 03:09:47;;;;;;;;;;;12.70;99.90;;;;;;5073847;28;20301;-22
2022/11/16 03:12:14;;;;;;;;;;;12.70;99.90;;;;;;5074125;28;20362;-21
2022/11/16 03:14:41;;;;;;;;;;;12.70;99.90;;;;;;5074090;28;20223;-22
2022/11/16 03:17:10;;;;;;;;;;;12.70;99.90;;;;;;5074070;28;20329;-23
2022/11/16 03:19:41;;;;;;;;;;;12.70;99.90;;;;;;5073440;28;19908;-21
2022/11/16 03:22:19;;;;;;;;;;;12.70;99.90;;;;;;5073818;28;19954;-23
2022/11/16 03:24:45;;;;;;;;;;;12.70;99.90;;;;;;5073945;28;19913;-22
2022/11/16 03:27:10;;;;;;;;;;;12.70;99.90;;;;;;5073836;28;20014;-22
2022/11/16 03:29:42;;;;;;;;;;;12.70;99.90;;;;;;5073277;28;19952;-21
2022/11/16 03:32:22;;;;;;;;;;;12.70;99.90;;;;;;5073480;28;20023;-21
2022/11/16 03:34:55;;;;;;;;;;;12.70;99.90;;;;;;5073843;28;19908;-23
2022/11/16 03:37:22;;;;;;;;;;;12.70;99.90;;;;;;5073659;28;19908;-27
2022/11/16 03:39:48;;;;;;;;;;;12.70;99.90;;;;;;5073191;28;19916;-23
2022/11/16 03:42:13;;;;;;;;;;;12.70;99.90;;;;;;5073745;28;20417;-25
2022/11/16 03:44:39;;;;;;;;;;;12.70;99.90;;;;;;5073591;28;19947;-21
2022/11/16 03:47:05;;;;;;;;;;;12.70;99.90;;;;;;5073603;28;19965;-23
2022/11/16 03:49:30;;;;;;;;;;;12.70;99.90;;;;;;5072949;28;20005;-23
2022/11/16 03:51:56;;;;;;;;;;;12.70;99.90;;;;;;5073390;28;19915;-28
2022/11/16 03:54:22;;;;;;;;;;;12.70;99.90;;;;;;5073269;28;19913;-22
2022/11/16 03:56:48;;;;;;;;;;;12.70;99.90;;;;;;5073375;28;19915;-27
2022/11/16 03:59:13;;;;;;;;;;;12.70;99.90;;;;;;5072744;28;19912;-25
2022/11/16 04:01:39;;;;;;;;;;;12.70;99.90;;;;;;5073382;28;19994;-28
2022/11/16 04:04:04;;;;;;;;;;;12.70;99.90;;;;;;5073070;28;20360;-22
2022/11/16 04:26:00;;;;;;;;;;;12.70;99.90;;;;;;5057791;28;19954;-23
2022/11/16 04:28:30;;;;;;;;;;;12.70;99.90;;;;;;5072349;28;19913;-23
2022/11/16 04:39:10;;;;;;;;;;;12.60;99.90;;;;;;5071917;28;19916;-23
2022/11/16 04:44:19;;;;;;;;;;;12.70;99.90;;;;;;5072490;28;20009;-25
2022/11/16 04:49:29;;;;;;;;;;;12.70;99.90;;;;;;5071669;28;19924;-21
2022/11/16 04:51:54;;;;;;;;;;;12.60;99.90;;;;;;5072279;28;19908;-22
2022/11/16 04:54:20;;;;;;;;;;;12.60;99.90;;;;;;5072020;28;20007;-23
2022/11/16 04:56:46;;;;;;;;;;;12.70;99.90;;;;;;5072186;28;19908;-20
2022/11/16 04:59:12;;;;;;;;;;;12.60;99.90;;;;;;5071491;28;19917;-28
2022/11/16 05:04:21;;;;;;;;;;;12.70;99.90;;;;;;5072054;28;19915;-22
2022/11/16 05:06:47;;;;;;;;;;;12.60;99.90;;;;;;5072072;28;20359;-23
2022/11/16 05:09:12;;;;;;;;;;;12.60;99.90;;;;;;5071636;28;19909;-29
2022/11/16 05:11:38;;;;;;;;;;;12.70;99.90;;;;;;5071941;28;19909;-21
2022/11/16 05:14:04;;;;;;;;;;;12.70;99.90;;;;;;5072043;28;19923;-22
2022/11/16 05:16:30;;;;;;;;;;;12.60;99.90;;;;;;5071737;28;19909;-22
2022/11/16 05:21:40;;;;;;;;;;;12.60;99.90;;;;;;5071989;28;20335;-22
2022/11/16 05:26:49;;;;;;;;;;;12.60;99.90;;;;;;5072151;28;19919;-27
2022/11/16 05:29:15;;;;;;;;;;;12.60;99.90;;;;;;5071320;28;19909;-23
2022/11/16 05:31:40;;;;;;;;;;;12.60;99.90;;;;;;5071372;28;20061;-22
2022/11/16 05:34:07;;;;;;;;;;;12.60;99.90;;;;;;5071569;28;19924;-23
2022/11/16 05:36:32;;;;;;;;;;;12.60;99.90;;;;;;5071484;28;19915;-27
2022/11/16 05:38:58;;;;;;;;;;;12.70;99.90;;;;;;5052922;28;19913;-24
2022/11/16 05:41:23;;;;;;;;;;;12.60;99.90;;;;;;5071622;28;20270;-23
2022/11/16 05:43:49;;;;;;;;;;;12.60;99.90;;;;;;5071585;28;20001;-22
2022/11/16 05:46:14;;;;;;;;;;;12.60;99.90;;;;;;5071535;28;19915;-21
2022/11/16 05:48:40;;;;;;;;;;;12.60;99.90;;;;;;5071638;28;20358;-21
2022/11/16 05:51:05;;;;;;;;;;;12.60;99.90;;;;;;5071462;28;19909;-21
2022/11/16 05:53:31;;;;;;;;;;;12.60;99.90;;;;;;5071112;28;20344;-25
2022/11/16 05:55:56;;;;;;;;;;;12.70;99.90;;;;;;5071602;28;19913;-25
2022/11/16 05:58:22;;;;;;;;;;;12.60;99.90;;;;;;5071023;28;20205;-21
2022/11/16 06:00:47;;;;;;;;;;;12.60;99.90;;;;;;5071385;28;19916;-22
2022/11/16 06:03:13;;;;;;;;;;;12.70;99.90;;;;;;5071478;28;20359;-23
2022/11/16 06:05:38;;;;;;;;;;;12.60;99.90;;;;;;5071515;28;19935;-30
2022/11/16 06:08:04;;;;;;;;;;;12.60;99.90;;;;;;5053163;28;19909;-24
2022/11/16 06:10:30;;;;;;;;;;;12.60;99.90;;;;;;5053475;28;19919;-23
2022/11/16 06:12:55;;;;;;;;;;;12.60;99.90;;;;;;5071276;28;19912;-26
2022/11/16 06:15:21;;;;;;;;;;;12.60;99.90;;;;;;5071525;28;20397;-21
2022/11/16 06:17:47;;;;;;;;;;;12.60;99.90;;;;;;5071240;28;20300;-23
2022/11/16 06:20:12;;;;;;;;;;;12.60;99.90;;;;;;5071193;28;20273;-23
2022/11/16 06:22:38;;;;;;;;;;;12.60;99.90;;;;;;5071375;28;19934;-23
2022/11/16 06:25:05;;;;;;;;;;;12.60;99.90;;;;;;5071299;28;20314;-22
2022/11/16 06:27:31;;;;;;;;;;;12.60;99.90;;;;;;5071348;28;19909;-22
2022/11/16 06:29:56;;;;;;;;;;;12.60;99.90;;;;;;5070743;28;19916;-25
2022/11/16 06:32:22;;;;;;;;;;;12.60;99.90;;;;;;5055561;28;19917;-24
2022/11/16 06:34:47;;;;;;;;;;;12.60;99.90;;;;;;5075286;28;19908;-23
2022/11/16 06:37:13;;;;;;;;;;;12.60;99.90;;;;;;5074742;28;19974;-23
2022/11/16 06:39:38;;;;;;;;;;;12.60;99.90;;;;;;5074537;28;19916;-23
2022/11/16 06:42:04;;;;;;;;;;;12.60;99.90;;;;;;5074673;28;20617;-22
2022/11/16 06:44:30;;;;;;;;;;;12.60;99.90;;;;;;5074690;28;19913;-23
2022/11/16 06:46:55;;;;;;;;;;;12.60;99.90;;;;;;5074502;28;19958;-23
2022/11/16 06:49:21;;;;;;;;;;;12.60;99.90;;;;;;5074448;28;19913;-24
2022/11/16 06:51:46;;;;;;;;;;;12.60;99.90;;;;;;5074909;28;20313;-23
2022/11/16 06:54:12;;;;;;;;;;;12.60;99.90;;;;;;5074413;28;19912;-22
2022/11/16 06:56:37;;;;;;;;;;;12.60;99.90;;;;;;5074395;28;19959;-23
2022/11/16 06:59:03;;;;;;;;;;;12.60;99.90;;;;;;5073880;28;19916;-23
2022/11/16 07:01:28;;;;;;;;;;;12.60;99.90;;;;;;5074447;28;20061;-22
2022/11/16 07:03:55;;;;;;;;;;;12.60;99.90;;;;;;5074223;28;20349;-23
2022/11/16 07:06:20;;;;;;;;;;;12.60;99.90;;;;;;5074227;28;19909;-28
2022/11/16 07:08:46;;;;;;;;;;;12.60;99.90;;;;;;5073643;28;20031;-26
2022/11/16 07:11:11;;;;;;;;;;;12.60;99.90;;;;;;5073971;28;19917;-27
2022/11/16 07:13:37;;;;;;;;;;;12.60;99.90;;;;;;5074337;28;19970;-23
2022/11/16 07:16:04;;;;;;;;;;;12.60;99.90;;;;;;5074121;28;19954;-21
2022/11/16 07:18:36;;;;;;;;;;;12.60;99.90;;;;;;5073451;28;19920;-23
2022/11/16 07:21:09;;;;;;;;;;;12.60;99.90;;;;;;5073509;28;19970;-22
2022/11/16 07:23:35;;;;;;;;;;;12.60;99.90;;;;;;5074204;28;19943;-22
2022/11/16 07:26:01;;;;;;;;;;;12.60;99.90;;;;;;5073998;28;19908;-22
2022/11/16 07:28:28;;;;;;;;;;;12.50;99.90;;;;;;5073332;28;19917;-31
2022/11/16 07:30:54;;;;;;;;;;;12.60;99.90;;;;;;5073581;28;19916;-20
2022/11/16 07:33:19;;;;;;;;;;;12.60;99.90;;;;;;5073637;28;19916;-22
2022/11/16 07:35:45;;;;;;;;;;;12.60;99.90;;;;;;5073643;28;19912;-24
2022/11/16 07:38:10;;;;;;;;;;;12.60;99.90;;;;;;5073092;28;19943;-23
2022/11/16 07:40:36;;;;;;;;;;;12.50;99.90;;;;;;5073454;28;20389;-21
2022/11/16 07:43:01;;;;;;;;;;;12.60;99.90;;;;;;5073021;28;19916;-21
2022/11/16 07:45:28;;;;;;;;;;;12.60;99.90;;;;;;5073587;28;19954;-22
2022/11/16 07:47:53;;;;;;;;;;;12.60;99.90;;;;;;5073167;28;19942;-22
2022/11/16 07:50:19;;;;;;;;;;;12.60;99.90;;;;;;5073713;28;19920;-22
2022/11/16 07:52:45;;;;;;;;;;;12.60;99.90;;;;;;5073287;28;19912;-21
2022/11/16 07:55:11;;;;;;;;;;;12.60;99.90;;;;;;5073414;28;19915;-23
2022/11/16 07:57:37;;;;;;;;;;;12.60;99.90;;;;;;5072977;28;19916;-26
2022/11/16 08:00:03;;;;;;;;;;;12.50;99.90;;;;;;5073764;28;20222;-22
2022/11/16 08:02:29;;;;;;;;;;;12.50;99.90;;;;;;5073002;28;20485;-31
2022/11/16 08:04:54;;;;;;;;;;;12.50;99.90;;;;;;5055044;28;19920;-22
2022/11/16 08:07:20;;;;;;;;;;;12.50;99.90;;;;;;5073061;28;19908;-24
2022/11/16 08:09:45;;;;;;;;;;;12.50;99.90;;;;;;5072463;28;19909;-32
2022/11/16 08:12:12;;;;;;;;;;;12.50;99.90;;;;;;5073136;28;19909;-24
2022/11/16 08:14:37;;;;;;;;;;;12.60;99.90;;;;;;5072774;28;19920;-29
2022/11/16 08:17:03;;;;;;;;;;;12.60;99.90;;;;;;5072792;28;20318;-28
2022/11/16 08:19:29;;;;;;;;;;;12.60;99.90;;;;;;5072276;28;19916;-21
2022/11/16 08:21:54;;;;;;;;;;;12.60;99.90;;;;;;5072780;28;19969;-22
2022/11/16 08:24:20;;;;;;;;;;;12.60;99.90;;;;;;5072791;28;20301;-24
2022/11/16 08:26:45;;;;;;;;;;;12.60;99.90;;;;;;5072894;28;19912;-23
2022/11/16 08:29:11;;;;;;;;;;;12.70;99.90;;;;;;5072285;28;19920;-24
2022/11/16 08:31:37;;;;;;;;;;;12.60;99.90;;;;;;5072306;28;19923;-26
2022/11/16 08:34:02;;;;;;;;;;;12.70;99.90;;;;;;5072443;28;19913;-23
2022/11/16 08:36:28;;;;;;;;;;;12.60;99.90;;;;;;5072560;28;19916;-22
2022/11/16 08:38:53;;;;;;;;;;;12.60;99.90;;;;;;5072216;28;19912;-21
2022/11/16 08:41:19;;;;;;;;;;;12.60;99.90;;;;;;5072437;28;19919;-24
2022/11/16 08:43:46;;;;;;;;;;;12.60;99.90;;;;;;5072701;28;19912;-23
2022/11/16 08:46:12;;;;;;;;;;;12.60;99.90;;;;;;5072889;28;19958;-23
2022/11/16 08:48:38;;;;;;;;;;;12.60;99.90;;;;;;5071747;28;20290;-27
2022/11/16 08:51:04;;;;;;;;;;;12.60;99.90;;;;;;5072367;28;19913;-30
2022/11/16 08:53:30;;;;;;;;;;;12.70;99.90;;;;;;5071624;28;20035;-24
2022/11/16 08:55:55;;;;;;;;;;;12.70;99.90;;;;;;5071889;28;20340;-26
2022/11/16 08:58:21;;;;;;;;;;;12.70;99.90;;;;;;5071570;28;19909;-26
2022/11/16 09:00:46;;;;;;;;;;;12.70;99.90;;;;;;5072035;28;20389;-23
2022/11/16 09:03:12;;;;;;;;;;;12.70;99.90;;;;;;5071958;28;19932;-21
2022/11/16 09:05:37;;;;;;;;;;;12.80;99.90;;;;;;5072082;28;20286;-24
2022/11/16 09:08:04;;;;;;;;;;;12.80;99.90;;;;;;5071712;28;19958;-23
2022/11/16 09:10:30;;;;;;;;;;;12.90;99.90;;;;;;5071776;28;19916;-28
2022/11/16 09:12:55;;;;;;;;;;;12.90;99.90;;;;;;5071707;28;19916;-21
2022/11/16 09:15:21;;;;;;;;;;;12.90;99.90;;;;;;5071745;28;19909;-26
2022/11/16 09:17:46;;;;;;;;;;;13.00;99.90;;;;;;5071511;28;19916;-27
2022/11/16 09:20:12;;;;;;;;;;;13.00;99.90;;;;;;5071490;28;20401;-23
2022/11/16 09:22:38;;;;;;;;;;;13.00;99.90;;;;;;5071848;28;19908;-24
2022/11/16 09:25:04;;;;;;;;;;;13.00;99.90;;;;;;5071870;28;19921;-23
2022/11/16 09:27:29;;;;;;;;;;;12.90;99.90;;;;;;5071938;28;20344;-23
2022/11/16 09:29:55;;;;;;;;;;;12.90;99.90;;;;;;5071625;28;20211;-31
2022/11/16 09:32:20;;;;;;;;;;;13.00;99.90;;;;;;5071460;28;19917;-23
2022/11/16 09:34:46;;;;;;;;;;;13.00;99.90;;;;;;5071612;28;19913;-26
2022/11/16 09:37:11;;;;;;;;;;;13.00;99.90;;;;;;5072051;28;20393;-23
2022/11/16 09:39:37;;;;;;;;;;;13.00;99.90;;;;;;5070886;28;19909;-24
2022/11/16 09:42:18;;;;;;;;;;;13.00;99.90;;;;;;5071433;28;19908;-24
2022/11/16 09:44:56;;;;;;;;;;;12.90;99.90;;;;;;5071626;28;19948;-32
2022/11/16 09:47:36;;;;;;;;;;;12.90;99.90;;;;;;5071412;28;19909;-22
2022/11/16 09:50:03;;;;;;;;;;;12.90;99.90;;;;;;5071254;28;19912;-23
2022/11/16 09:52:31;;;;;;;;;;;13.00;99.90;;;;;;5071287;28;20018;-23
2022/11/16 09:54:58;;;;;;;;;;;13.00;99.90;;;;;;5071437;28;19991;-22
2022/11/16 09:57:27;;;;;;;;;;;13.00;99.90;;;;;;5071136;28;19909;-26
2022/11/16 09:59:56;;;;;;;;;;;13.00;99.90;;;;;;5071007;28;19908;-22
2022/11/16 10:02:24;;;;;;;;;;;13.00;99.90;;;;;;5071275;28;19940;-23
2022/11/16 10:04:56;;;;;;;;;;;13.00;99.90;;;;;;5053572;28;19917;-24
2022/11/16 10:07:21;;;;;;;;;;;13.00;99.90;;;;;;5075208;28;19919;-23
2022/11/16 10:09:48;;;;;;;;;;;13.00;99.90;;;;;;5056931;28;19912;-23
2022/11/16 10:12:13;;;;;;;;;;;13.00;99.90;;;;;;5075100;28;19909;-22
2022/11/16 10:15:03;;;;;;;;;;;13.00;99.90;;;;;;5057235;28;19932;-30
2022/11/16 10:17:37;;;;;;;;;;;13.00;99.90;;;;;;5075161;28;20396;-29
2022/11/16 10:20:02;;;;;;;;;;;13.00;99.90;;;;;;5074616;28;19919;-27
2022/11/16 10:22:47;;;;;;;;;;;13.10;99.90;;;;;;5074940;28;19908;-30
2022/11/16 10:25:23;;;;;;;;;;;13.20;99.90;;;;;;5074950;28;19912;-24
2022/11/16 10:28:07;;;;;;;;;;;13.30;99.90;;;;;;5074667;28;19916;-24
2022/11/16 10:30:34;;;;;;;;;;;13.40;99.90;;;;;;5074611;28;19916;-24
2022/11/16 10:33:05;;;;;;;;;;;13.50;99.90;;;;;;5075122;28;19970;-23
2022/11/16 10:35:31;;;;;;;;;;;13.60;99.90;;;;;;5074851;28;19908;-23
2022/11/16 10:37:58;;;;;;;;;;;13.60;99.90;;;;;;5074604;28;19908;-27
2022/11/16 10:40:26;;;;;;;;;;;13.70;99.90;;;;;;5074728;28;20286;-24
2022/11/16 10:42:58;;;;;;;;;;;13.70;99.90;;;;;;5074598;28;19916;-24
2022/11/16 10:45:54;;;;;;;;;;;13.80;99.90;;;;;;5074775;28;20405;-23
2022/11/16 10:48:40;;;;;;;;;;;13.90;99.90;;;;;;5020088;28;19963;-24
2022/11/16 10:51:06;;;;;;;;;;;13.90;99.90;;;;;;5074531;28;19915;-24
2022/11/16 10:53:36;;;;;;;;;;;13.90;99.90;;;;;;5074876;28;19912;-21
2022/11/16 10:56:13;;;;;;;;;;;13.90;99.90;;;;;;5074296;28;19909;-24
2022/11/16 10:58:54;;;;;;;;;;;13.90;99.90;;;;;;5073706;28;19917;-23
2022/11/16 11:01:38;;;;;;;;;;;14.00;99.90;;;;;;5074225;28;19916;-23
2022/11/16 11:04:11;;;;;;;;;;;14.00;99.90;;;;;;5074111;28;19927;-24
2022/11/16 11:06:37;;;;;;;;;;;14.00;99.90;;;;;;5074185;28;19908;-23
2022/11/16 11:09:15;;;;;;;;;;;14.00;99.90;;;;;;5073545;28;20441;-24
2022/11/16 11:14:24;;;;;;;;;;;14.00;99.90;;;;;;5074031;28;19982;-21
2022/11/16 11:16:53;;;;;;;;;;;14.00;99.90;;;;;;5055029;28;20373;-23
2022/11/16 11:19:28;;;;;;;;;;;14.00;99.90;;;;;;5073505;28;19915;-23
2022/11/16 11:21:54;;;;;;;;;;;13.90;99.90;;;;;;5073817;28;19995;-24
2022/11/16 11:24:20;;;;;;;;;;;13.90;99.90;;;;;;5073924;28;20581;-24
2022/11/16 11:26:51;;;;;;;;;;;14.00;99.90;;;;;;5073777;28;19912;-27
2022/11/16 11:29:22;;;;;;;;;;;13.90;99.90;;;;;;5073400;28;19912;-24
2022/11/16 11:31:50;;;;;;;;;;;13.90;99.90;;;;;;5073901;28;19923;-24
2022/11/16 11:34:26;;;;;;;;;;;13.90;99.90;;;;;;5073589;28;19912;-24
2022/11/16 11:36:53;;;;;;;;;;;13.90;99.90;;;;;;5073498;28;19966;-23
2022/11/16 11:39:18;;;;;;;;;;;13.90;99.90;;;;;;5072963;28;19979;-24
2022/11/16 11:41:45;;;;;;;;;;;13.90;99.90;;;;;;5073404;28;19917;-24
2022/11/16 11:44:14;;;;;;;;;;;13.80;99.90;;;;;;5073361;28;19913;-24
2022/11/16 11:46:43;;;;;;;;;;;13.80;99.90;;;;;;5073400;28;20362;-21
2022/11/16 11:49:17;;;;;;;;;;;13.80;99.90;;;;;;5072867;28;20370;-24
2022/11/16 11:51:44;;;;;;;;;;;13.80;99.90;;;;;;5073167;28;19940;-23
2022/11/16 11:54:25;;;;;;;;;;;13.70;99.90;;;;;;5073104;28;19966;-23
2022/11/16 11:56:50;;;;;;;;;;;13.70;99.90;;;;;;5073258;28;19965;-24
2022/11/16 11:59:22;;;;;;;;;;;13.80;99.90;;;;;;5072751;28;19913;-22
2022/11/16 12:02:09;;;;;;;;;;;13.70;99.90;;;;;;5073125;28;20336;-23
2022/11/16 12:04:53;;;;;;;;;;;13.70;99.90;;;;;;5073137;28;19909;-26
2022/11/16 12:07:25;;;;;;;;;;;13.70;99.90;;;;;;5073110;28;19931;-26
2022/11/16 12:10:08;;;;;;;;;;;13.70;99.90;;;;;;5072575;28;19912;-24
2022/11/16 12:13:00;;;;;;;;;;;13.70;99.90;;;;;;5072571;28;20281;-23
2022/11/16 12:15:37;;;;;;;;;;;13.80;99.90;;;;;;5048993;28;19914;-26
2022/11/16 12:18:38;;;;;;;;;;;13.80;99.90;;;;;;5072154;28;19908;-23
2022/11/16 12:21:06;;;;;;;;;;;13.80;99.90;;;;;;5010123;28;19917;-23
2022/11/16 12:23:50;;;;;;;;;;;13.90;99.90;;;;;;5060780;28;19912;-22
2022/11/16 12:26:31;;;;;;;;;;;13.90;99.90;;;;;;5072617;28;20007;-28
2022/11/16 12:29:03;;;;;;;;;;;13.90;99.90;;;;;;5072135;28;20385;-26
2022/11/16 12:31:47;;;;;;;;;;;13.90;99.90;;;;;;5072380;28;19923;-23
2022/11/16 12:34:26;;;;;;;;;;;13.90;99.90;;;;;;5054407;28;19924;-23
2022/11/16 12:36:54;;;;;;;;;;;13.90;99.90;;;;;;5072504;28;19977;-23
2022/11/16 12:39:20;;;;;;;;;;;13.90;99.90;;;;;;5072013;28;20326;-26
2022/11/16 12:42:14;;;;;;;;;;;13.90;99.90;;;;;;5072163;28;19915;-26
2022/11/16 12:44:59;;;;;;;;;;;14.00;99.90;;;;;;5058840;28;19923;-28
2022/11/16 12:47:43;;;;;;;;;;;14.00;99.90;;;;;;5072176;28;19915;-28
2022/11/16 12:50:20;;;;;;;;;;;13.90;99.90;;;;;;5071852;28;19999;-23
2022/11/16 12:52:57;;;;;;;;;;;14.00;99.90;;;;;;5072372;28;19920;-25
2022/11/16 12:55:23;;;;;;;;;;;14.00;99.90;;;;;;5072392;28;20463;-23
2022/11/16 12:58:15;;;;;;;;;;;13.90;99.90;;;;;;5071964;28;19908;-30
2022/11/16 13:00:44;;;;;;;;;;;13.90;99.90;;;;;;5068661;28;19930;-26
2022/11/16 13:03:22;;;;;;;;;;;14.00;99.90;;;;;;5072082;28;19913;-21
2022/11/16 13:05:51;;;;;;;;;;;13.90;99.90;;;;;;5071999;28;19947;-23
2022/11/16 13:08:22;;;;;;;;;;;14.00;99.90;;;;;;5053342;28;19912;-24
2022/11/16 13:10:49;;;;;;;;;;;14.00;99.90;;;;;;5071754;28;19909;-29
2022/11/16 13:13:28;;;;;;;;;;;14.00;99.90;;;;;;5071749;28;19919;-22
2022/11/16 13:15:54;;;;;;;;;;;14.00;99.90;;;;;;5071821;28;19957;-25
2022/11/16 13:18:20;;;;;;;;;;;14.00;99.90;;;;;;5071179;28;19921;-22
2022/11/16 13:20:49;;;;;;;;;;;14.10;99.90;;;;;;5053554;28;20392;-23
2022/11/16 13:23:14;;;;;;;;;;;14.00;99.90;;;;;;5071623;28;19908;-23
2022/11/16 13:25:49;;;;;;;;;;;14.00;99.90;;;;;;5071400;28;19919;-22
2022/11/16 13:28:17;;;;;;;;;;;14.10;99.90;;;;;;5071127;28;19909;-23
2022/11/16 13:30:48;;;;;;;;;;;14.00;99.90;;;;;;5071430;28;19913;-24
2022/11/16 13:33:17;;;;;;;;;;;14.00;99.90;;;;;;5071400;28;19984;-24
2022/11/16 13:35:42;;;;;;;;;;;14.00;99.90;;;;;;5071491;28;19908;-29
2022/11/16 13:38:10;;;;;;;;;;;14.00;99.90;;;;;;5070746;28;19919;-24
2022/11/16 13:40:35;;;;;;;;;;;14.00;99.90;;;;;;5070931;28;19916;-25
2022/11/16 13:43:05;;;;;;;;;;;14.10;99.90;;;;;;5071442;28;19909;-23
2022/11/16 13:45:34;;;;;;;;;;;14.10;99.90;;;;;;5071399;28;19915;-27
2022/11/16 13:48:00;;;;;;;;;;;14.10;99.90;;;;;;5052889;28;19912;-28
2022/11/16 13:50:33;;;;;;;;;;;14.10;99.90;;;;;;5071209;28;19912;-22
2022/11/16 13:53:02;;;;;;;;;;;14.10;99.90;;;;;;5071110;28;19923;-24
2022/11/16 13:55:29;;;;;;;;;;;14.00;99.90;;;;;;5071285;28;20354;-28
2022/11/16 13:57:56;;;;;;;;;;;14.10;99.90;;;;;;5070971;28;20281;-24
2022/11/16 14:00:22;;;;;;;;;;;14.10;99.90;;;;;;5071584;28;19909;-21
2022/11/16 14:03:08;;;;;;;;;;;14.10;99.90;;;;;;5071357;28;20285;-21
2022/11/16 14:05:33;;;;;;;;;;;14.10;99.90;;;;;;5071052;28;19912;-23
2022/11/16 14:08:19;;;;;;;;;;;14.00;99.90;;;;;;5053148;28;19916;-22
2022/11/16 14:10:47;;;;;;;;;;;14.00;99.90;;;;;;5071083;28;20295;-22
2022/11/16 14:13:33;;;;;;;;;;;14.00;99.90;;;;;;5071231;28;19913;-23
2022/11/16 14:16:21;;;;;;;;;;;14.00;99.90;;;;;;5071268;28;20007;-24
2022/11/16 14:18:47;;;;;;;;;;;14.00;99.90;;;;;;5052493;28;19931;-22
2022/11/16 14:21:32;;;;;;;;;;;14.00;99.90;;;;;;5070998;28;20376;-24
2022/11/16 14:24:15;;;;;;;;;;;13.90;99.90;;;;;;5071024;28;20003;-23
2022/11/16 14:26:59;;;;;;;;;;;13.90;99.90;;;;;;5071272;28;19912;-24
2022/11/16 14:29:43;;;;;;;;;;;13.90;99.90;;;;;;5070842;28;19909;-22
2022/11/16 14:32:23;;;;;;;;;;;13.80;99.90;;;;;;5070746;28;19916;-27
2022/11/16 14:34:50;;;;;;;;;;;13.80;99.90;;;;;;5071130;28;20358;-29
2022/11/16 14:37:23;;;;;;;;;;;13.80;99.90;;;;;;5071171;28;19920;-26
2022/11/16 14:39:50;;;;;;;;;;;13.70;99.90;;;;;;5070729;28;19909;-29
2022/11/16 14:42:24;;;;;;;;;;;13.70;99.90;;;;;;5070839;28;20422;-22
2022/11/16 14:44:56;;;;;;;;;;;13.70;99.90;;;;;;5053192;28;19912;-24
2022/11/16 14:47:24;;;;;;;;;;;13.60;99.90;;;;;;5071202;28;20159;-23
2022/11/16 14:49:49;;;;;;;;;;;13.60;99.90;;;;;;5070630;28;19916;-24
2022/11/16 14:52:16;;;;;;;;;;;13.60;99.90;;;;;;5071775;28;19908;-27
2022/11/16 14:54:52;;;;;;;;;;;13.60;99.90;;;;;;5074357;28;19912;-24
2022/11/16 14:57:19;;;;;;;;;;;13.60;99.90;;;;;;5056486;28;19919;-24
2022/11/16 14:59:45;;;;;;;;;;;13.60;99.90;;;;;;5074208;28;20477;-21
2022/11/16 15:02:22;;;;;;;;;;;13.60;99.90;;;;;;5074386;28;19987;-24
2022/11/16 15:04:48;;;;;;;;;;;13.60;99.90;;;;;;5056583;28;20026;-23
2022/11/16 15:07:15;;;;;;;;;;;13.50;99.90;;;;;;5074483;28;19908;-23
2022/11/16 15:09:43;;;;;;;;;;;13.50;99.90;;;;;;5073663;28;19917;-29
2022/11/16 15:15:00;;;;;;;;;;;13.60;99.90;;;;;;5074229;28;20236;-23
2022/11/16 15:17:26;;;;;;;;;;;13.60;99.90;;;;;;5074071;28;20028;-31
2022/11/16 15:19:52;;;;;;;;;;;13.60;99.90;;;;;;5073711;28;20338;-26